sensor_id;sensor_type;location;lat;lon;timestamp;pressure;altitude;pressure_sealevel;temperature
63113;BMP280;49206;48.020;21.378;2023-01-19T00:00:17;98725.25;;;4.83
63113;BMP280;49206;48.020;21.378;2023-01-19T00:01:19;98724.38;;;4.79
63113;BMP280;49206;48.020;21.378;2023-01-19T00:02:22;98733.31;;;4.78
63113;BMP280;49206;48.020;21.378;2023-01-19T00:03:25;98725.91;;;4.80
63113;BMP280;49206;48.020;21.378;2023-01-19T00:04:27;98735.94;;;4.78
63113;BMP280;49206;48.020;21.378;2023-01-19T00:05:30;98730.16;;;4.84
63113;BMP280;49206;48.020;21.378;2023-01-19T00:06:35;98723.31;;;4.80
63113;BMP280;49206;48.020;21.378;2023-01-19T00:07:37;98718.56;;;4.85
63113;BMP280;49206;48.020;21.378;2023-01-19T00:08:40;98718.81;;;4.80
63113;BMP280;49206;48.020;21.378;2023-01-19T00:09:45;98721.88;;;4.82
63113;BMP280;49206;48.020;21.378;2023-01-19T00:10:49;98717.28;;;4.91
63113;BMP280;49206;48.020;21.378;2023-01-19T00:11:55;98723.25;;;4.92
63113;BMP280;49206;48.020;21.378;2023-01-19T00:12:57;98720.63;;;4.92
63113;BMP280;49206;48.020;21.378;2023-01-19T00:14:00;98720.09;;;4.98
63113;BMP280;49206;48.020;21.378;2023-01-19T00:15:03;98724.44;;;4.94
63113;BMP280;49206;48.020;21.378;2023-01-19T00:16:06;98728.34;;;5.00
63113;BMP280;49206;48.020;21.378;2023-01-19T00:17:09;98723.91;;;5.01
63113;BMP280;49206;48.020;21.378;2023-01-19T00:18:12;98720.72;;;4.95
63113;BMP280;49206;48.020;21.378;2023-01-19T00:19:14;98720.41;;;4.97
63113;BMP280;49206;48.020;21.378;2023-01-19T00:20:17;98715.28;;;5.00
63113;BMP280;49206;48.020;21.378;2023-01-19T00:21:20;98724.72;;;5.05
63113;BMP280;49206;48.020;21.378;2023-01-19T00:22:23;98718.72;;;5.04
63113;BMP280;49206;48.020;21.378;2023-01-19T00:23:26;98713.16;;;5.06
63113;BMP280;49206;48.020;21.378;2023-01-19T00:24:28;98719.81;;;5.03
63113;BMP280;49206;48.020;21.378;2023-01-19T00:25:31;98719.44;;;5.01
63113;BMP280;49206;48.020;21.378;2023-01-19T00:26:33;98718.66;;;5.01
63113;BMP280;49206;48.020;21.378;2023-01-19T00:27:36;98716.38;;;4.99
63113;BMP280;49206;48.020;21.378;2023-01-19T00:28:38;98712.31;;;5.02
63113;BMP280;49206;48.020;21.378;2023-01-19T00:29:41;98714.81;;;5.10
63113;BMP280;49206;48.020;21.378;2023-01-19T00:30:46;98713.50;;;5.04
63113;BMP280;49206;48.020;21.378;2023-01-19T00:31:54;98717.31;;;5.07
63113;BMP280;49206;48.020;21.378;2023-01-19T00:32:56;98715.47;;;5.07
63113;BMP280;49206;48.020;21.378;2023-01-19T00:34:00;98700.00;;;5.14
63113;BMP280;49206;48.020;21.378;2023-01-19T00:35:03;98705.31;;;5.06
63113;BMP280;49206;48.020;21.378;2023-01-19T00:36:06;98705.09;;;5.11
63113;BMP280;49206;48.020;21.378;2023-01-19T00:37:09;98694.22;;;5.09
63113;BMP280;49206;48.020;21.378;2023-01-19T00:38:12;98687.56;;;5.11
63113;BMP280;49206;48.020;21.378;2023-01-19T00:39:15;98689.63;;;5.18
63113;BMP280;49206;48.020;21.378;2023-01-19T00:40:17;98697.84;;;5.20
63113;BMP280;49206;48.020;21.378;2023-01-19T00:41:20;98679.16;;;5.18
63113;BMP280;49206;48.020;21.378;2023-01-19T00:42:45;98681.78;;;5.18
63113;BMP280;49206;48.020;21.378;2023-01-19T00:43:49;98685.13;;;5.18
63113;BMP280;49206;48.020;21.378;2023-01-19T00:44:52;98682.59;;;5.22
63113;BMP280;49206;48.020;21.378;2023-01-19T00:45:54;98684.91;;;5.23
63113;BMP280;49206;48.020;21.378;2023-01-19T00:46:57;98676.88;;;5.16
63113;BMP280;49206;48.020;21.378;2023-01-19T00:48:00;98667.56;;;5.19
63113;BMP280;49206;48.020;21.378;2023-01-19T00:49:03;98679.75;;;5.27
63113;BMP280;49206;48.020;21.378;2023-01-19T00:50:08;98677.38;;;5.22
63113;BMP280;49206;48.020;21.378;2023-01-19T00:51:13;98681.59;;;5.26
63113;BMP280;49206;48.020;21.378;2023-01-19T00:52:15;98678.44;;;5.21
63113;BMP280;49206;48.020;21.378;2023-01-19T00:53:17;98674.06;;;5.25
63113;BMP280;49206;48.020;21.378;2023-01-19T00:54:21;98679.75;;;5.27
63113;BMP280;49206;48.020;21.378;2023-01-19T00:55:24;98675.25;;;5.27
63113;BMP280;49206;48.020;21.378;2023-01-19T00:56:26;98658.25;;;5.33
63113;BMP280;49206;48.020;21.378;2023-01-19T00:57:29;98657.06;;;5.31
63113;BMP280;49206;48.020;21.378;2023-01-19T00:58:32;98652.16;;;5.29
63113;BMP280;49206;48.020;21.378;2023-01-19T00:59:39;98650.13;;;5.38
63113;BMP280;49206;48.020;21.378;2023-01-19T01:00:43;98644.81;;;5.35
63113;BMP280;49206;48.020;21.378;2023-01-19T01:01:46;98648.44;;;5.30
63113;BMP280;49206;48.020;21.378;2023-01-19T01:02:50;98646.84;;;5.26
63113;BMP280;49206;48.020;21.378;2023-01-19T01:03:54;98646.06;;;5.25
63113;BMP280;49206;48.020;21.378;2023-01-19T01:04:57;98639.81;;;5.30
63113;BMP280;49206;48.020;21.378;2023-01-19T01:06:02;98636.97;;;5.35
63113;BMP280;49206;48.020;21.378;2023-01-19T01:07:05;98637.31;;;5.33
63113;BMP280;49206;48.020;21.378;2023-01-19T01:08:08;98641.78;;;5.33
63113;BMP280;49206;48.020;21.378;2023-01-19T01:09:11;98633.59;;;5.34
63113;BMP280;49206;48.020;21.378;2023-01-19T01:10:22;98634.69;;;5.33
63113;BMP280;49206;48.020;21.378;2023-01-19T01:11:32;98628.00;;;5.36
63113;BMP280;49206;48.020;21.378;2023-01-19T01:12:36;98627.31;;;5.39
63113;BMP280;49206;48.020;21.378;2023-01-19T01:13:39;98637.91;;;5.42
63113;BMP280;49206;48.020;21.378;2023-01-19T01:14:41;98644.31;;;5.45
63113;BMP280;49206;48.020;21.378;2023-01-19T01:15:49;98640.75;;;5.37
63113;BMP280;49206;48.020;21.378;2023-01-19T01:16:52;98639.94;;;5.49
63113;BMP280;49206;48.020;21.378;2023-01-19T01:17:57;98636.72;;;5.40
63113;BMP280;49206;48.020;21.378;2023-01-19T01:19:02;98646.09;;;5.41
63113;BMP280;49206;48.020;21.378;2023-01-19T01:20:05;98647.59;;;5.42
63113;BMP280;49206;48.020;21.378;2023-01-19T01:21:09;98647.50;;;5.38
63113;BMP280;49206;48.020;21.378;2023-01-19T01:22:14;98644.56;;;5.40
63113;BMP280;49206;48.020;21.378;2023-01-19T01:23:17;98649.69;;;5.36
63113;BMP280;49206;48.020;21.378;2023-01-19T01:24:26;98642.38;;;5.42
63113;BMP280;49206;48.020;21.378;2023-01-19T01:25:33;98638.47;;;5.36
63113;BMP280;49206;48.020;21.378;2023-01-19T01:26:38;98639.59;;;5.35
63113;BMP280;49206;48.020;21.378;2023-01-19T01:27:41;98639.84;;;5.45
63113;BMP280;49206;48.020;21.378;2023-01-19T01:28:44;98651.31;;;5.41
63113;BMP280;49206;48.020;21.378;2023-01-19T01:29:47;98657.66;;;5.40
63113;BMP280;49206;48.020;21.378;2023-01-19T01:30:54;98662.66;;;5.45
63113;BMP280;49206;48.020;21.378;2023-01-19T01:31:57;98643.63;;;5.48
63113;BMP280;49206;48.020;21.378;2023-01-19T01:33:02;98633.34;;;5.39
63113;BMP280;49206;48.020;21.378;2023-01-19T01:34:05;98623.19;;;5.38
63113;BMP280;49206;48.020;21.378;2023-01-19T01:35:09;98617.91;;;5.34
63113;BMP280;49206;48.020;21.378;2023-01-19T01:36:12;98613.06;;;5.36
63113;BMP280;49206;48.020;21.378;2023-01-19T01:37:16;98608.91;;;5.35
63113;BMP280;49206;48.020;21.378;2023-01-19T01:38:18;98607.50;;;5.38
63113;BMP280;49206;48.020;21.378;2023-01-19T01:39:21;98605.50;;;5.47
63113;BMP280;49206;48.020;21.378;2023-01-19T01:40:24;98596.53;;;5.48
63113;BMP280;49206;48.020;21.378;2023-01-19T01:41:32;98592.00;;;5.45
63113;BMP280;49206;48.020;21.378;2023-01-19T01:42:35;98593.16;;;5.47
63113;BMP280;49206;48.020;21.378;2023-01-19T01:43:49;98584.53;;;5.47
63113;BMP280;49206;48.020;21.378;2023-01-19T01:45:35;98579.47;;;5.54
63113;BMP280;49206;48.020;21.378;2023-01-19T01:46:39;98576.69;;;5.47
63113;BMP280;49206;48.020;21.378;2023-01-19T01:47:45;98581.53;;;5.45
63113;BMP280;49206;48.020;21.378;2023-01-19T01:49:06;98567.47;;;5.53
63113;BMP280;49206;48.020;21.378;2023-01-19T01:50:16;98563.00;;;5.53
63113;BMP280;49206;48.020;21.378;2023-01-19T01:51:42;98553.31;;;5.54
63113;BMP280;49206;48.020;21.378;2023-01-19T01:53:01;98546.53;;;5.53
63113;BMP280;49206;48.020;21.378;2023-01-19T01:55:24;98552.81;;;5.48
63113;BMP280;49206;48.020;21.378;2023-01-19T01:56:42;98560.72;;;5.52
63113;BMP280;49206;48.020;21.378;2023-01-19T01:57:54;98548.41;;;5.52
63113;BMP280;49206;48.020;21.378;2023-01-19T01:59:00;98547.16;;;5.46
63113;BMP280;49206;48.020;21.378;2023-01-19T02:00:08;98556.78;;;5.42
63113;BMP280;49206;48.020;21.378;2023-01-19T02:01:11;98554.91;;;5.43
63113;BMP280;49206;48.020;21.378;2023-01-19T02:02:34;98544.28;;;5.51
63113;BMP280;49206;48.020;21.378;2023-01-19T02:03:53;98549.34;;;5.44
63113;BMP280;49206;48.020;21.378;2023-01-19T02:05:14;98551.72;;;5.49
63113;BMP280;49206;48.020;21.378;2023-01-19T02:06:18;98549.16;;;5.53
63113;BMP280;49206;48.020;21.378;2023-01-19T02:07:31;98552.19;;;5.55
63113;BMP280;49206;48.020;21.378;2023-01-19T02:09:01;98542.84;;;5.54
63113;BMP280;49206;48.020;21.378;2023-01-19T02:10:23;98541.72;;;5.55
63113;BMP280;49206;48.020;21.378;2023-01-19T02:11:45;98543.13;;;5.49
63113;BMP280;49206;48.020;21.378;2023-01-19T02:13:07;98557.97;;;5.45
63113;BMP280;49206;48.020;21.378;2023-01-19T02:14:19;98563.53;;;5.43
63113;BMP280;49206;48.020;21.378;2023-01-19T02:15:22;98561.50;;;5.52
63113;BMP280;49206;48.020;21.378;2023-01-19T02:16:25;98562.19;;;5.49
63113;BMP280;49206;48.020;21.378;2023-01-19T02:17:28;98558.38;;;5.47
63113;BMP280;49206;48.020;21.378;2023-01-19T02:18:31;98561.44;;;5.49
63113;BMP280;49206;48.020;21.378;2023-01-19T02:19:40;98557.13;;;5.41
63113;BMP280;49206;48.020;21.378;2023-01-19T02:21:10;98550.13;;;5.45
63113;BMP280;49206;48.020;21.378;2023-01-19T02:22:33;98540.31;;;5.42
63113;BMP280;49206;48.020;21.378;2023-01-19T02:23:45;98542.34;;;5.48
63113;BMP280;49206;48.020;21.378;2023-01-19T02:24:51;98533.44;;;5.53
63113;BMP280;49206;48.020;21.378;2023-01-19T02:25:55;98530.38;;;5.47
63113;BMP280;49206;48.020;21.378;2023-01-19T02:26:58;98535.28;;;5.49
63113;BMP280;49206;48.020;21.378;2023-01-19T02:28:01;98527.22;;;5.42
63113;BMP280;49206;48.020;21.378;2023-01-19T02:29:10;98523.75;;;5.38
63113;BMP280;49206;48.020;21.378;2023-01-19T02:30:13;98519.38;;;5.42
63113;BMP280;49206;48.020;21.378;2023-01-19T02:31:18;98521.75;;;5.47
63113;BMP280;49206;48.020;21.378;2023-01-19T02:32:21;98511.00;;;5.52
63113;BMP280;49206;48.020;21.378;2023-01-19T02:33:24;98513.94;;;5.50
63113;BMP280;49206;48.020;21.378;2023-01-19T02:34:27;98519.38;;;5.42
63113;BMP280;49206;48.020;21.378;2023-01-19T02:35:30;98524.03;;;5.48
63113;BMP280;49206;48.020;21.378;2023-01-19T02:36:44;98540.84;;;5.47
63113;BMP280;49206;48.020;21.378;2023-01-19T02:37:57;98535.06;;;5.42
63113;BMP280;49206;48.020;21.378;2023-01-19T02:39:01;98519.38;;;5.42
63113;BMP280;49206;48.020;21.378;2023-01-19T02:40:10;98529.91;;;5.45
63113;BMP280;49206;48.020;21.378;2023-01-19T02:41:18;98514.16;;;5.42
63113;BMP280;49206;48.020;21.378;2023-01-19T02:42:35;98513.03;;;5.43
63113;BMP280;49206;48.020;21.378;2023-01-19T02:43:39;98508.91;;;5.42
63113;BMP280;49206;48.020;21.378;2023-01-19T02:44:45;98514.47;;;5.40
63113;BMP280;49206;48.020;21.378;2023-01-19T02:45:49;98526.56;;;5.45
63113;BMP280;49206;48.020;21.378;2023-01-19T02:46:53;98525.78;;;5.44
63113;BMP280;49206;48.020;21.378;2023-01-19T02:47:56;98529.91;;;5.45
63113;BMP280;49206;48.020;21.378;2023-01-19T02:48:59;98530.63;;;5.42
63113;BMP280;49206;48.020;21.378;2023-01-19T02:50:03;98528.41;;;5.44
63113;BMP280;49206;48.020;21.378;2023-01-19T02:51:23;98525.72;;;5.41
63113;BMP280;49206;48.020;21.378;2023-01-19T02:52:26;98518.19;;;5.39
63113;BMP280;49206;48.020;21.378;2023-01-19T02:54:40;98526.28;;;5.50
63113;BMP280;49206;48.020;21.378;2023-01-19T02:55:54;98522.50;;;5.47
63113;BMP280;49206;48.020;21.378;2023-01-19T03:00:13;98536.94;;;5.41
63113;BMP280;49206;48.020;21.378;2023-01-19T03:03:24;98553.91;;;5.47
63113;BMP280;49206;48.020;21.378;2023-01-19T03:06:13;98556.88;;;5.46
63113;BMP280;49206;48.020;21.378;2023-01-19T03:09:02;98545.00;;;5.52
63113;BMP280;49206;48.020;21.378;2023-01-19T03:11:14;98541.28;;;5.53
63113;BMP280;49206;48.020;21.378;2023-01-19T03:12:30;98537.25;;;5.55
63113;BMP280;49206;48.020;21.378;2023-01-19T03:13:47;98551.44;;;5.54
63113;BMP280;49206;48.020;21.378;2023-01-19T03:14:56;98546.53;;;5.53
63113;BMP280;49206;48.020;21.378;2023-01-19T03:16:45;98535.94;;;5.46
63113;BMP280;49206;48.020;21.378;2023-01-19T03:17:48;98531.03;;;5.44
63113;BMP280;49206;48.020;21.378;2023-01-19T03:18:55;98528.50;;;5.48
63113;BMP280;49206;48.020;21.378;2023-01-19T03:19:58;98528.66;;;5.55
63113;BMP280;49206;48.020;21.378;2023-01-19T03:21:04;98527.13;;;5.54
63113;BMP280;49206;48.020;21.378;2023-01-19T03:22:10;98520.34;;;5.53
63113;BMP280;49206;48.020;21.378;2023-01-19T03:23:16;98518.44;;;5.50
63113;BMP280;49206;48.020;21.378;2023-01-19T03:24:45;98513.28;;;5.53
63113;BMP280;49206;48.020;21.378;2023-01-19T03:25:50;98506.47;;;5.49
63113;BMP280;49206;48.020;21.378;2023-01-19T03:26:59;98503.41;;;5.47
63113;BMP280;49206;48.020;21.378;2023-01-19T03:28:03;98507.56;;;5.48
63113;BMP280;49206;48.020;21.378;2023-01-19T03:29:07;98491.22;;;5.54
63113;BMP280;49206;48.020;21.378;2023-01-19T03:30:14;98500.19;;;5.53
63113;BMP280;49206;48.020;21.378;2023-01-19T03:31:22;98498.69;;;5.52
63113;BMP280;49206;48.020;21.378;2023-01-19T03:32:34;98495.28;;;5.52
63113;BMP280;49206;48.020;21.378;2023-01-19T03:33:40;98502.81;;;5.53
63113;BMP280;49206;48.020;21.378;2023-01-19T03:34:46;98512.69;;;5.60
63113;BMP280;49206;48.020;21.378;2023-01-19T03:35:53;98528.19;;;5.53
63113;BMP280;49206;48.020;21.378;2023-01-19T03:37:02;98519.13;;;5.47
63113;BMP280;49206;48.020;21.378;2023-01-19T03:38:11;98527.78;;;5.51
63113;BMP280;49206;48.020;21.378;2023-01-19T03:39:21;98521.91;;;5.54
63113;BMP280;49206;48.020;21.378;2023-01-19T03:40:29;98513.03;;;5.58
63113;BMP280;49206;48.020;21.378;2023-01-19T03:41:35;98524.59;;;5.57
63113;BMP280;49206;48.020;21.378;2023-01-19T03:42:39;98521.97;;;5.57
63113;BMP280;49206;48.020;21.378;2023-01-19T03:43:43;98522.81;;;5.61
63113;BMP280;49206;48.020;21.378;2023-01-19T03:44:46;98520.53;;;5.60
63113;BMP280;49206;48.020;21.378;2023-01-19T03:45:52;98518.81;;;5.67
63113;BMP280;49206;48.020;21.378;2023-01-19T03:46:56;98525.09;;;5.63
63113;BMP280;49206;48.020;21.378;2023-01-19T03:48:00;98519.91;;;5.66
63113;BMP280;49206;48.020;21.378;2023-01-19T03:49:03;98516.41;;;5.59
63113;BMP280;49206;48.020;21.378;2023-01-19T03:50:12;98511.25;;;5.62
63113;BMP280;49206;48.020;21.378;2023-01-19T03:51:16;98514.53;;;5.59
63113;BMP280;49206;48.020;21.378;2023-01-19T03:52:28;98522.38;;;5.59
63113;BMP280;49206;48.020;21.378;2023-01-19T03:53:31;98517.59;;;5.61
63113;BMP280;49206;48.020;21.378;2023-01-19T03:54:33;98519.09;;;5.62
63113;BMP280;49206;48.020;21.378;2023-01-19T03:55:38;98507.03;;;5.58
63113;BMP280;49206;48.020;21.378;2023-01-19T03:56:41;98511.50;;;5.57
63113;BMP280;49206;48.020;21.378;2023-01-19T03:57:45;98510.13;;;5.63
63113;BMP280;49206;48.020;21.378;2023-01-19T03:58:50;98513.44;;;5.60
63113;BMP280;49206;48.020;21.378;2023-01-19T03:59:53;98514.63;;;5.63
63113;BMP280;49206;48.020;21.378;2023-01-19T04:00:57;98524.25;;;5.59
63113;BMP280;49206;48.020;21.378;2023-01-19T04:01:59;98529.56;;;5.62
63113;BMP280;49206;48.020;21.378;2023-01-19T04:03:03;98529.91;;;5.61
63113;BMP280;49206;48.020;21.378;2023-01-19T04:04:06;98529.03;;;5.72
63113;BMP280;49206;48.020;21.378;2023-01-19T04:05:09;98528.34;;;5.75
63113;BMP280;49206;48.020;21.378;2023-01-19T04:06:12;98528.34;;;5.75
63113;BMP280;49206;48.020;21.378;2023-01-19T04:07:15;98517.13;;;5.75
63113;BMP280;49206;48.020;21.378;2023-01-19T04:08:18;98514.16;;;5.76
63113;BMP280;49206;48.020;21.378;2023-01-19T04:09:21;98511.59;;;5.80
63113;BMP280;49206;48.020;21.378;2023-01-19T04:10:24;98515.59;;;5.74
63113;BMP280;49206;48.020;21.378;2023-01-19T04:11:26;98510.56;;;5.65
63113;BMP280;49206;48.020;21.378;2023-01-19T04:12:29;98510.81;;;5.76
63113;BMP280;49206;48.020;21.378;2023-01-19T04:13:32;98500.94;;;5.69
63113;BMP280;49206;48.020;21.378;2023-01-19T04:14:35;98493.88;;;5.73
63113;BMP280;49206;48.020;21.378;2023-01-19T04:15:40;98484.44;;;5.69
63113;BMP280;49206;48.020;21.378;2023-01-19T04:16:46;98494.50;;;5.67
63113;BMP280;49206;48.020;21.378;2023-01-19T04:17:49;98492.31;;;5.69
63113;BMP280;49206;48.020;21.378;2023-01-19T04:18:52;98490.34;;;5.66
63113;BMP280;49206;48.020;21.378;2023-01-19T04:19:54;98481.91;;;5.72
63113;BMP280;49206;48.020;21.378;2023-01-19T04:21:00;98465.34;;;5.68
63113;BMP280;49206;48.020;21.378;2023-01-19T04:22:07;98458.78;;;5.74
63113;BMP280;49206;48.020;21.378;2023-01-19T04:23:10;98448.91;;;5.68
63113;BMP280;49206;48.020;21.378;2023-01-19T04:24:12;98456.41;;;5.69
63113;BMP280;49206;48.020;21.378;2023-01-19T04:25:15;98458.34;;;5.72
63113;BMP280;49206;48.020;21.378;2023-01-19T04:26:18;98461.38;;;5.74
63113;BMP280;49206;48.020;21.378;2023-01-19T04:27:21;98470.31;;;5.73
63113;BMP280;49206;48.020;21.378;2023-01-19T04:28:24;98462.00;;;5.87
63113;BMP280;49206;48.020;21.378;2023-01-19T04:29:27;98462.69;;;5.84
63113;BMP280;49206;48.020;21.378;2023-01-19T04:30:30;98473.78;;;5.77
63113;BMP280;49206;48.020;21.378;2023-01-19T04:31:32;98471.94;;;5.78
63113;BMP280;49206;48.020;21.378;2023-01-19T04:32:36;98466.41;;;5.83
63113;BMP280;49206;48.020;21.378;2023-01-19T04:33:39;98470.13;;;5.82
63113;BMP280;49206;48.020;21.378;2023-01-19T04:34:42;98469.44;;;5.85
63113;BMP280;49206;48.020;21.378;2023-01-19T04:35:46;98475.50;;;5.89
63113;BMP280;49206;48.020;21.378;2023-01-19T04:36:48;98486.25;;;5.84
63113;BMP280;49206;48.020;21.378;2023-01-19T04:37:53;98488.03;;;5.80
63113;BMP280;49206;48.020;21.378;2023-01-19T04:38:55;98480.94;;;5.80
63113;BMP280;49206;48.020;21.378;2023-01-19T04:39:58;98491.16;;;5.85
63113;BMP280;49206;48.020;21.378;2023-01-19T04:41:01;98485.13;;;5.85
63113;BMP280;49206;48.020;21.378;2023-01-19T04:42:03;98485.06;;;5.81
63113;BMP280;49206;48.020;21.378;2023-01-19T04:43:07;98493.25;;;5.80
63113;BMP280;49206;48.020;21.378;2023-01-19T04:44:13;98507.41;;;5.75
63113;BMP280;49206;48.020;21.378;2023-01-19T04:45:15;98505.56;;;5.76
63113;BMP280;49206;48.020;21.378;2023-01-19T04:46:18;98508.59;;;5.78
63113;BMP280;49206;48.020;21.378;2023-01-19T04:47:21;98507.50;;;5.79
63113;BMP280;49206;48.020;21.378;2023-01-19T04:48:24;98503.06;;;5.83
63113;BMP280;49206;48.020;21.378;2023-01-19T04:49:26;98513.06;;;5.77
63113;BMP280;49206;48.020;21.378;2023-01-19T04:50:30;98508.19;;;5.76
63113;BMP280;49206;48.020;21.378;2023-01-19T04:51:33;98510.16;;;5.82
63113;BMP280;49206;48.020;21.378;2023-01-19T04:52:36;98498.50;;;5.80
63113;BMP280;49206;48.020;21.378;2023-01-19T04:53:39;98492.88;;;5.78
63113;BMP280;49206;48.020;21.378;2023-01-19T04:54:42;98491.38;;;5.77
63113;BMP280;49206;48.020;21.378;2023-01-19T04:55:45;98483.91;;;5.79
63113;BMP280;49206;48.020;21.378;2023-01-19T04:56:48;98490.94;;;5.75
63113;BMP280;49206;48.020;21.378;2023-01-19T04:57:50;98491.38;;;5.77
63113;BMP280;49206;48.020;21.378;2023-01-19T04:58:53;98497.72;;;5.76
63113;BMP280;49206;48.020;21.378;2023-01-19T04:59:56;98488.78;;;5.80
63113;BMP280;49206;48.020;21.378;2023-01-19T05:00:59;98482.88;;;5.83
63113;BMP280;49206;48.020;21.378;2023-01-19T05:02:02;98489.50;;;5.77
63113;BMP280;49206;48.020;21.378;2023-01-19T05:03:04;98486.13;;;5.77
63113;BMP280;49206;48.020;21.378;2023-01-19T05:04:07;98490.31;;;5.81
63113;BMP280;49206;48.020;21.378;2023-01-19T05:05:10;98491.03;;;5.78
63113;BMP280;49206;48.020;21.378;2023-01-19T05:06:13;98482.75;;;5.76
63113;BMP280;49206;48.020;21.378;2023-01-19T05:07:16;98478.94;;;5.74
63113;BMP280;49206;48.020;21.378;2023-01-19T05:08:18;98481.56;;;5.74
63113;BMP280;49206;48.020;21.378;2023-01-19T05:09:21;98480.38;;;5.71
63113;BMP280;49206;48.020;21.378;2023-01-19T05:10:24;98485.38;;;5.76
63113;BMP280;49206;48.020;21.378;2023-01-19T05:11:26;98486.81;;;5.74
63113;BMP280;49206;48.020;21.378;2023-01-19T05:12:29;98488.31;;;5.75
63113;BMP280;49206;48.020;21.378;2023-01-19T05:13:31;98488.03;;;5.80
63113;BMP280;49206;48.020;21.378;2023-01-19T05:14:40;98486.88;;;5.77
63113;BMP280;49206;48.020;21.378;2023-01-19T05:15:43;98490.63;;;5.80
63113;BMP280;49206;48.020;21.378;2023-01-19T05:16:46;98490.47;;;5.88
63113;BMP280;49206;48.020;21.378;2023-01-19T05:17:49;98503.03;;;5.79
63113;BMP280;49206;48.020;21.378;2023-01-19T05:18:51;98505.34;;;5.84
63113;BMP280;49206;48.020;21.378;2023-01-19T05:19:54;98510.25;;;5.86
63113;BMP280;49206;48.020;21.378;2023-01-19T05:20:57;98513.53;;;5.83
63113;BMP280;49206;48.020;21.378;2023-01-19T05:22:03;98517.25;;;5.82
63113;BMP280;49206;48.020;21.378;2023-01-19T05:23:07;98510.03;;;5.94
63113;BMP280;49206;48.020;21.378;2023-01-19T05:24:10;98498.00;;;5.90
63113;BMP280;49206;48.020;21.378;2023-01-19T05:25:13;98497.06;;;5.82
63113;BMP280;49206;48.020;21.378;2023-01-19T05:26:18;98495.88;;;5.80
63113;BMP280;49206;48.020;21.378;2023-01-19T05:27:21;98497.81;;;5.83
63113;BMP280;49206;48.020;21.378;2023-01-19T05:28:23;98509.41;;;5.82
63113;BMP280;49206;48.020;21.378;2023-01-19T05:29:28;98501.13;;;5.80
63113;BMP280;49206;48.020;21.378;2023-01-19T05:30:31;98501.06;;;5.76
63113;BMP280;49206;48.020;21.378;2023-01-19T05:31:33;98501.50;;;5.78
63113;BMP280;49206;48.020;21.378;2023-01-19T05:32:37;98503.41;;;5.81
63113;BMP280;49206;48.020;21.378;2023-01-19T05:33:39;98504.47;;;5.77
63113;BMP280;49206;48.020;21.378;2023-01-19T05:34:42;98507.06;;;5.77
63113;BMP280;49206;48.020;21.378;2023-01-19T05:35:51;98499.88;;;5.74
63113;BMP280;49206;48.020;21.378;2023-01-19T05:36:56;98496.66;;;5.80
63113;BMP280;49206;48.020;21.378;2023-01-19T05:37:59;98503.84;;;5.83
63113;BMP280;49206;48.020;21.378;2023-01-19T05:39:02;98499.25;;;5.80
63113;BMP280;49206;48.020;21.378;2023-01-19T05:40:05;98502.28;;;5.82
63113;BMP280;49206;48.020;21.378;2023-01-19T05:41:08;98495.63;;;5.85
63113;BMP280;49206;48.020;21.378;2023-01-19T05:42:10;98499.06;;;5.89
63113;BMP280;49206;48.020;21.378;2023-01-19T05:43:14;98497.16;;;5.86
63113;BMP280;49206;48.020;21.378;2023-01-19T05:44:16;98488.59;;;5.89
63113;BMP280;49206;48.020;21.378;2023-01-19T05:45:22;98488.13;;;5.83
63113;BMP280;49206;48.020;21.378;2023-01-19T05:46:24;98483.22;;;5.82
63113;BMP280;49206;48.020;21.378;2023-01-19T05:47:31;98485.97;;;5.89
63113;BMP280;49206;48.020;21.378;2023-01-19T05:48:33;98480.41;;;5.90
63113;BMP280;49206;48.020;21.378;2023-01-19T05:49:36;98482.19;;;5.86
63113;BMP280;49206;48.020;21.378;2023-01-19T05:50:38;98476.47;;;5.81
63113;BMP280;49206;48.020;21.378;2023-01-19T05:51:41;98482.53;;;5.85
63113;BMP280;49206;48.020;21.378;2023-01-19T05:52:48;98473.09;;;5.80
63113;BMP280;49206;48.020;21.378;2023-01-19T05:53:54;98475.38;;;5.82
63113;BMP280;49206;48.020;21.378;2023-01-19T05:54:57;98480.25;;;5.83
63113;BMP280;49206;48.020;21.378;2023-01-19T05:56:04;98478.81;;;5.86
63113;BMP280;49206;48.020;21.378;2023-01-19T05:57:07;98488.19;;;5.87
63113;BMP280;49206;48.020;21.378;2023-01-19T05:58:10;98488.88;;;5.84
63113;BMP280;49206;48.020;21.378;2023-01-19T05:59:12;98483.28;;;5.85
63113;BMP280;49206;48.020;21.378;2023-01-19T06:00:19;98485.56;;;5.87
63113;BMP280;49206;48.020;21.378;2023-01-19T06:01:27;98484.34;;;6.00
63113;BMP280;49206;48.020;21.378;2023-01-19T06:02:43;98480.41;;;5.90
63113;BMP280;49206;48.020;21.378;2023-01-19T06:03:47;98495.44;;;5.93
63113;BMP280;49206;48.020;21.378;2023-01-19T06:04:50;98487.22;;;5.95
63113;BMP280;49206;48.020;21.378;2023-01-19T06:05:56;98495.94;;;5.99
63113;BMP280;49206;48.020;21.378;2023-01-19T06:06:59;98503.34;;;5.97
63113;BMP280;49206;48.020;21.378;2023-01-19T06:08:01;98504.59;;;6.03
63113;BMP280;49206;48.020;21.378;2023-01-19T06:09:04;98508.25;;;5.98
63113;BMP280;49206;48.020;21.378;2023-01-19T06:10:07;98505.19;;;5.96
63113;BMP280;49206;48.020;21.378;2023-01-19T06:11:10;98511.91;;;5.94
63113;BMP280;49206;48.020;21.378;2023-01-19T06:12:13;98511.91;;;5.94
63113;BMP280;49206;48.020;21.378;2023-01-19T06:13:17;98511.84;;;5.90
63113;BMP280;49206;48.020;21.378;2023-01-19T06:14:19;98519.75;;;5.94
63113;BMP280;49206;48.020;21.378;2023-01-19T06:15:22;98520.50;;;5.94
63113;BMP280;49206;48.020;21.378;2023-01-19T06:16:24;98519.34;;;5.92
63113;BMP280;49206;48.020;21.378;2023-01-19T06:17:27;98520.91;;;5.96
63113;BMP280;49206;48.020;21.378;2023-01-19T06:18:30;98526.44;;;5.91
63113;BMP280;49206;48.020;21.378;2023-01-19T06:19:33;98526.81;;;5.90
63113;BMP280;49206;48.020;21.378;2023-01-19T06:20:38;98526.81;;;5.90
63113;BMP280;49206;48.020;21.378;2023-01-19T06:21:41;98521.97;;;5.92
63113;BMP280;49206;48.020;21.378;2023-01-19T06:22:44;98517.84;;;5.91
63113;BMP280;49206;48.020;21.378;2023-01-19T06:23:47;98518.28;;;5.96
63113;BMP280;49206;48.020;21.378;2023-01-19T06:24:49;98521.00;;;6.00
63113;BMP280;49206;48.020;21.378;2023-01-19T06:25:52;98521.84;;;6.04
63113;BMP280;49206;48.020;21.378;2023-01-19T06:26:55;98527.00;;;6.00
63113;BMP280;49206;48.020;21.378;2023-01-19T06:27:57;98519.50;;;5.99
63113;BMP280;49206;48.020;21.378;2023-01-19T06:29:02;98523.63;;;6.00